sensor_id;sensor_type;location;lat;lon;timestamp;P1;durP1;ratioP1;P2;durP2;ratioP2
4692;SDS011;11710;48.024;16.296;2022-07-29T00:02:20;12.90;;;11.10;;
4692;SDS011;11710;48.024;16.296;2022-07-29T00:04:47;15.37;;;11.17;;
4692;SDS011;11710;48.024;16.296;2022-07-29T00:07:14;15.97;;;10.93;;
4692;SDS011;11710;48.024;16.296;2022-07-29T00:09:41;17.07;;;11.53;;
4692;SDS011;11710;48.024;16.296;2022-07-29T00:12:08;15.67;;;11.70;;
4692;SDS011;11710;48.024;16.296;2022-07-29T00:14:35;17.93;;;12.37;;
4692;SDS011;11710;48.024;16.296;2022-07-29T00:17:02;17.43;;;10.77;;
4692;SDS011;11710;48.024;16.296;2022-07-29T00:19:30;15.20;;;11.33;;
4692;SDS011;11710;48.024;16.296;2022-07-29T00:21:59;19.57;;;11.83;;
4692;SDS011;11710;48.024;16.296;2022-07-29T00:24:26;12.53;;;10.97;;
4692;SDS011;11710;48.024;16.296;2022-07-29T00:26:53;13.30;;;10.87;;
4692;SDS011;11710;48.024;16.296;2022-07-29T00:29:20;16.87;;;10.53;;
4692;SDS011;11710;48.024;16.296;2022-07-29T00:31:47;11.83;;;10.63;;
4692;SDS011;11710;48.024;16.296;2022-07-29T00:34:14;13.23;;;11.07;;
4692;SDS011;11710;48.024;16.296;2022-07-29T00:36:56;13.17;;;11.57;;
4692;SDS011;11710;48.024;16.296;2022-07-29T00:39:23;15.73;;;10.70;;
4692;SDS011;11710;48.024;16.296;2022-07-29T00:41:50;16.77;;;11.97;;
4692;SDS011;11710;48.024;16.296;2022-07-29T00:44:17;14.57;;;11.83;;
4692;SDS011;11710;48.024;16.296;2022-07-29T00:46:44;12.00;;;10.70;;
4692;SDS011;11710;48.024;16.296;2022-07-29T00:49:12;12.60;;;11.20;;
4692;SDS011;11710;48.024;16.296;2022-07-29T00:51:39;12.80;;;11.40;;
4692;SDS011;11710;48.024;16.296;2022-07-29T00:54:08;14.03;;;11.60;;
4692;SDS011;11710;48.024;16.296;2022-07-29T00:56:35;12.93;;;10.53;;
4692;SDS011;11710;48.024;16.296;2022-07-29T00:59:02;13.80;;;9.80;;
4692;SDS011;11710;48.024;16.296;2022-07-29T01:01:29;13.23;;;9.80;;
4692;SDS011;11710;48.024;16.296;2022-07-29T01:03:56;10.23;;;9.00;;
4692;SDS011;11710;48.024;16.296;2022-07-29T01:06:23;10.30;;;8.53;;
4692;SDS011;11710;48.024;16.296;2022-07-29T01:08:51;13.07;;;9.90;;
4692;SDS011;11710;48.024;16.296;2022-07-29T01:11:20;10.33;;;9.23;;
4692;SDS011;11710;48.024;16.296;2022-07-29T01:13:47;12.30;;;10.47;;
4692;SDS011;11710;48.024;16.296;2022-07-29T01:16:17;12.13;;;9.50;;
4692;SDS011;11710;48.024;16.296;2022-07-29T01:18:49;10.80;;;8.90;;
4692;SDS011;11710;48.024;16.296;2022-07-29T01:21:37;10.27;;;9.17;;
4692;SDS011;11710;48.024;16.296;2022-07-29T01:24:28;14.37;;;10.13;;
4692;SDS011;11710;48.024;16.296;2022-07-29T01:27:07;11.40;;;10.23;;
4692;SDS011;11710;48.024;16.296;2022-07-29T01:29:47;11.17;;;9.60;;
4692;SDS011;11710;48.024;16.296;2022-07-29T01:32:19;10.97;;;9.70;;
4692;SDS011;11710;48.024;16.296;2022-07-29T01:34:56;11.70;;;9.70;;
4692;SDS011;11710;48.024;16.296;2022-07-29T01:37:29;12.27;;;10.43;;
4692;SDS011;11710;48.024;16.296;2022-07-29T01:40:01;13.00;;;10.03;;
4692;SDS011;11710;48.024;16.296;2022-07-29T01:42:33;11.17;;;9.90;;
4692;SDS011;11710;48.024;16.296;2022-07-29T01:45:06;12.73;;;9.87;;
4692;SDS011;11710;48.024;16.296;2022-07-29T01:47:39;12.73;;;10.20;;
4692;SDS011;11710;48.024;16.296;2022-07-29T01:50:10;13.00;;;10.33;;
4692;SDS011;11710;48.024;16.296;2022-07-29T01:52:43;11.60;;;10.50;;
4692;SDS011;11710;48.024;16.296;2022-07-29T01:55:14;14.17;;;10.37;;
4692;SDS011;11710;48.024;16.296;2022-07-29T01:57:44;11.67;;;10.30;;
4692;SDS011;11710;48.024;16.296;2022-07-29T02:00:15;12.47;;;10.53;;
4692;SDS011;11710;48.024;16.296;2022-07-29T02:02:43;12.03;;;10.57;;
4692;SDS011;11710;48.024;16.296;2022-07-29T02:05:14;12.03;;;10.70;;
4692;SDS011;11710;48.024;16.296;2022-07-29T02:07:43;15.33;;;10.50;;
4692;SDS011;11710;48.024;16.296;2022-07-29T02:10:12;11.07;;;9.97;;
4692;SDS011;11710;48.024;16.296;2022-07-29T02:12:40;12.23;;;10.83;;
4692;SDS011;11710;48.024;16.296;2022-07-29T02:15:09;12.20;;;10.23;;
4692;SDS011;11710;48.024;16.296;2022-07-29T02:17:40;13.70;;;10.37;;
4692;SDS011;11710;48.024;16.296;2022-07-29T02:20:10;12.37;;;10.00;;
4692;SDS011;11710;48.024;16.296;2022-07-29T02:22:39;12.63;;;9.97;;
4692;SDS011;11710;48.024;16.296;2022-07-29T02:25:08;16.73;;;10.43;;
4692;SDS011;11710;48.024;16.296;2022-07-29T02:27:36;11.70;;;9.63;;
4692;SDS011;11710;48.024;16.296;2022-07-29T02:30:05;10.87;;;9.77;;
4692;SDS011;11710;48.024;16.296;2022-07-29T02:32:35;12.57;;;10.00;;
4692;SDS011;11710;48.024;16.296;2022-07-29T02:35:05;12.00;;;9.87;;
4692;SDS011;11710;48.024;16.296;2022-07-29T02:37:35;10.27;;;9.27;;
4692;SDS011;11710;48.024;16.296;2022-07-29T02:40:04;13.23;;;10.30;;
4692;SDS011;11710;48.024;16.296;2022-07-29T02:42:34;10.40;;;9.40;;
4692;SDS011;11710;48.024;16.296;2022-07-29T02:45:04;14.13;;;10.17;;
4692;SDS011;11710;48.024;16.296;2022-07-29T02:47:33;11.00;;;9.80;;
4692;SDS011;11710;48.024;16.296;2022-07-29T02:50:06;11.50;;;9.77;;
4692;SDS011;11710;48.024;16.296;2022-07-29T02:52:39;11.60;;;10.30;;
4692;SDS011;11710;48.024;16.296;2022-07-29T02:55:11;12.27;;;10.47;;
4692;SDS011;11710;48.024;16.296;2022-07-29T03:01:08;12.70;;;9.17;;
4692;SDS011;11710;48.024;16.296;2022-07-29T03:03:39;10.87;;;9.80;;
4692;SDS011;11710;48.024;16.296;2022-07-29T03:06:10;12.43;;;11.13;;
4692;SDS011;11710;48.024;16.296;2022-07-29T03:08:39;11.63;;;10.10;;
4692;SDS011;11710;48.024;16.296;2022-07-29T03:11:07;11.47;;;10.20;;
4692;SDS011;11710;48.024;16.296;2022-07-29T03:13:35;11.53;;;10.33;;
4692;SDS011;11710;48.024;16.296;2022-07-29T03:16:03;11.20;;;10.00;;
4692;SDS011;11710;48.024;16.296;2022-07-29T03:18:31;13.57;;;9.97;;
4692;SDS011;11710;48.024;16.296;2022-07-29T03:20:59;11.90;;;9.80;;
4692;SDS011;11710;48.024;16.296;2022-07-29T03:23:27;10.93;;;9.50;;
4692;SDS011;11710;48.024;16.296;2022-07-29T03:25:54;10.10;;;9.10;;
4692;SDS011;11710;48.024;16.296;2022-07-29T03:28:22;11.77;;;10.53;;
4692;SDS011;11710;48.024;16.296;2022-07-29T03:30:49;10.90;;;9.90;;
4692;SDS011;11710;48.024;16.296;2022-07-29T03:33:16;11.70;;;10.40;;
4692;SDS011;11710;48.024;16.296;2022-07-29T03:35:43;11.10;;;10.00;;
4692;SDS011;11710;48.024;16.296;2022-07-29T03:38:10;11.50;;;10.03;;
4692;SDS011;11710;48.024;16.296;2022-07-29T03:40:40;12.87;;;10.17;;
4692;SDS011;11710;48.024;16.296;2022-07-29T03:43:10;11.47;;;10.33;;
4692;SDS011;11710;48.024;16.296;2022-07-29T03:45:39;12.30;;;9.87;;
4692;SDS011;11710;48.024;16.296;2022-07-29T03:48:11;13.73;;;10.77;;
4692;SDS011;11710;48.024;16.296;2022-07-29T03:50:42;10.57;;;9.50;;
4692;SDS011;11710;48.024;16.296;2022-07-29T03:53:09;11.63;;;9.93;;
4692;SDS011;11710;48.024;16.296;2022-07-29T03:55:40;10.70;;;9.60;;
4692;SDS011;11710;48.024;16.296;2022-07-29T03:58:09;13.30;;;10.60;;
4692;SDS011;11710;48.024;16.296;2022-07-29T04:00:38;10.00;;;9.00;;
4692;SDS011;11710;48.024;16.296;2022-07-29T04:03:06;11.47;;;10.23;;
4692;SDS011;11710;48.024;16.296;2022-07-29T04:05:34;12.40;;;10.27;;
4692;SDS011;11710;48.024;16.296;2022-07-29T04:08:01;11.07;;;9.90;;
4692;SDS011;11710;48.024;16.296;2022-07-29T04:10:29;13.27;;;9.43;;
4692;SDS011;11710;48.024;16.296;2022-07-29T04:12:57;11.10;;;9.60;;
4692;SDS011;11710;48.024;16.296;2022-07-29T04:15:25;10.50;;;9.50;;
4692;SDS011;11710;48.024;16.296;2022-07-29T04:17:53;10.13;;;9.13;;
4692;SDS011;11710;48.024;16.296;2022-07-29T04:20:20;10.80;;;9.63;;
4692;SDS011;11710;48.024;16.296;2022-07-29T04:22:47;9.47;;;8.63;;
4692;SDS011;11710;48.024;16.296;2022-07-29T04:25:14;10.03;;;8.97;;
4692;SDS011;11710;48.024;16.296;2022-07-29T04:27:41;10.00;;;9.10;;
4692;SDS011;11710;48.024;16.296;2022-07-29T04:30:23;9.47;;;8.57;;
4692;SDS011;11710;48.024;16.296;2022-07-29T04:32:50;10.53;;;8.20;;
4692;SDS011;11710;48.024;16.296;2022-07-29T04:35:18;9.60;;;8.17;;
4692;SDS011;11710;48.024;16.296;2022-07-29T04:37:45;11.70;;;8.30;;
4692;SDS011;11710;48.024;16.296;2022-07-29T04:40:12;9.60;;;8.70;;
4692;SDS011;11710;48.024;16.296;2022-07-29T04:42:39;9.30;;;8.10;;
4692;SDS011;11710;48.024;16.296;2022-07-29T04:45:06;9.73;;;8.73;;
4692;SDS011;11710;48.024;16.296;2022-07-29T04:47:34;7.97;;;7.37;;
4692;SDS011;11710;48.024;16.296;2022-07-29T04:50:02;8.50;;;7.80;;
4692;SDS011;11710;48.024;16.296;2022-07-29T04:52:30;8.47;;;7.73;;
4692;SDS011;11710;48.024;16.296;2022-07-29T04:54:57;8.00;;;7.30;;
4692;SDS011;11710;48.024;16.296;2022-07-29T04:57:24;8.83;;;8.03;;
4692;SDS011;11710;48.024;16.296;2022-07-29T05:00:17;8.60;;;7.90;;
4692;SDS011;11710;48.024;16.296;2022-07-29T05:03:07;9.73;;;7.63;;
4692;SDS011;11710;48.024;16.296;2022-07-29T05:05:37;8.53;;;7.73;;
4692;SDS011;11710;48.024;16.296;2022-07-29T05:08:04;9.27;;;8.30;;
4692;SDS011;11710;48.024;16.296;2022-07-29T05:10:31;10.20;;;8.90;;
4692;SDS011;11710;48.024;16.296;2022-07-29T05:13:00;8.40;;;7.60;;
4692;SDS011;11710;48.024;16.296;2022-07-29T05:15:27;8.97;;;8.20;;
4692;SDS011;11710;48.024;16.296;2022-07-29T05:17:54;8.23;;;7.43;;
4692;SDS011;11710;48.024;16.296;2022-07-29T05:20:23;8.87;;;8.07;;
4692;SDS011;11710;48.024;16.296;2022-07-29T05:22:53;8.80;;;8.00;;
4692;SDS011;11710;48.024;16.296;2022-07-29T05:25:20;9.10;;;8.30;;
4692;SDS011;11710;48.024;16.296;2022-07-29T05:27:47;9.10;;;8.30;;
4692;SDS011;11710;48.024;16.296;2022-07-29T05:30:14;9.10;;;8.40;;
4692;SDS011;11710;48.024;16.296;2022-07-29T05:32:41;8.77;;;8.17;;
4692;SDS011;11710;48.024;16.296;2022-07-29T05:35:08;8.77;;;7.97;;
4692;SDS011;11710;48.024;16.296;2022-07-29T05:37:39;11.20;;;10.20;;
4692;SDS011;11710;48.024;16.296;2022-07-29T05:40:06;9.63;;;8.83;;
4692;SDS011;11710;48.024;16.296;2022-07-29T05:42:34;10.03;;;9.20;;
4692;SDS011;11710;48.024;16.296;2022-07-29T05:45:01;9.30;;;8.50;;
4692;SDS011;11710;48.024;16.296;2022-07-29T05:47:29;10.37;;;9.20;;
4692;SDS011;11710;48.024;16.296;2022-07-29T05:49:56;9.53;;;8.73;;
4692;SDS011;11710;48.024;16.296;2022-07-29T05:52:23;9.60;;;8.80;;
4692;SDS011;11710;48.024;16.296;2022-07-29T05:54:51;9.97;;;9.07;;
4692;SDS011;11710;48.024;16.296;2022-07-29T05:57:19;9.70;;;8.87;;
4692;SDS011;11710;48.024;16.296;2022-07-29T05:59:47;9.80;;;8.80;;
4692;SDS011;11710;48.024;16.296;2022-07-29T06:02:14;9.10;;;8.30;;
4692;SDS011;11710;48.024;16.296;2022-07-29T06:04:42;9.43;;;8.63;;
4692;SDS011;11710;48.024;16.296;2022-07-29T06:07:09;10.37;;;9.33;;
4692;SDS011;11710;48.024;16.296;2022-07-29T06:09:37;11.03;;;9.80;;
4692;SDS011;11710;48.024;16.296;2022-07-29T06:12:05;10.53;;;9.53;;
4692;SDS011;11710;48.024;16.296;2022-07-29T06:14:33;10.70;;;8.83;;
4692;SDS011;11710;48.024;16.296;2022-07-29T06:17:00;11.90;;;8.67;;
4692;SDS011;11710;48.024;16.296;2022-07-29T06:19:27;9.83;;;8.90;;
4692;SDS011;11710;48.024;16.296;2022-07-29T06:21:56;13.60;;;9.20;;
4692;SDS011;11710;48.024;16.296;2022-07-29T06:24:23;13.70;;;9.63;;
4692;SDS011;11710;48.024;16.296;2022-07-29T06:26:50;10.30;;;8.73;;
4692;SDS011;11710;48.024;16.296;2022-07-29T06:29:19;10.33;;;9.43;;
4692;SDS011;11710;48.024;16.296;2022-07-29T06:31:46;9.47;;;8.57;;
4692;SDS011;11710;48.024;16.296;2022-07-29T06:34:13;14.33;;;9.50;;
4692;SDS011;11710;48.024;16.296;2022-07-29T06:36:40;10.43;;;9.43;;
4692;SDS011;11710;48.024;16.296;2022-07-29T06:39:07;10.50;;;9.47;;
4692;SDS011;11710;48.024;16.296;2022-07-29T06:41:34;10.10;;;9.10;;
4692;SDS011;11710;48.024;16.296;2022-07-29T06:44:02;10.50;;;9.50;;
4692;SDS011;11710;48.024;16.296;2022-07-29T06:46:31;10.63;;;9.53;;
4692;SDS011;11710;48.024;16.296;2022-07-29T06:48:58;10.80;;;9.43;;
4692;SDS011;11710;48.024;16.296;2022-07-29T06:51:26;11.80;;;10.03;;
4692;SDS011;11710;48.024;16.296;2022-07-29T06:53:53;11.20;;;10.20;;
4692;SDS011;11710;48.024;16.296;2022-07-29T06:56:22;11.10;;;10.00;;
4692;SDS011;11710;48.024;16.296;2022-07-29T06:58:50;13.10;;;10.43;;
4692;SDS011;11710;48.024;16.296;2022-07-29T07:01:16;10.83;;;9.83;;
4692;SDS011;11710;48.024;16.296;2022-07-29T07:03:46;11.27;;;10.17;;
4692;SDS011;11710;48.024;16.296;2022-07-29T07:06:13;10.50;;;9.50;;
4692;SDS011;11710;48.024;16.296;2022-07-29T07:08:39;10.33;;;9.23;;
4692;SDS011;11710;48.024;16.296;2022-07-29T07:11:06;9.90;;;9.00;;
4692;SDS011;11710;48.024;16.296;2022-07-29T07:13:34;10.93;;;9.83;;
4692;SDS011;11710;48.024;16.296;2022-07-29T07:16:01;11.03;;;9.90;;
4692;SDS011;11710;48.024;16.296;2022-07-29T07:18:28;10.80;;;9.70;;
4692;SDS011;11710;48.024;16.296;2022-07-29T07:20:57;10.20;;;9.30;;
4692;SDS011;11710;48.024;16.296;2022-07-29T07:23:24;11.33;;;10.33;;
4692;SDS011;11710;48.024;16.296;2022-07-29T07:25:51;10.53;;;9.50;;
4692;SDS011;11710;48.024;16.296;2022-07-29T07:28:18;10.23;;;9.33;;
4692;SDS011;11710;48.024;16.296;2022-07-29T07:30:46;15.97;;;10.67;;
4692;SDS011;11710;48.024;16.296;2022-07-29T07:33:13;11.37;;;9.37;;
4692;SDS011;11710;48.024;16.296;2022-07-29T07:35:42;10.57;;;9.57;;
4692;SDS011;11710;48.024;16.296;2022-07-29T07:38:13;9.63;;;8.73;;
4692;SDS011;11710;48.024;16.296;2022-07-29T07:40:41;10.17;;;9.17;;
4692;SDS011;11710;48.024;16.296;2022-07-29T07:43:13;9.03;;;8.33;;
4692;SDS011;11710;48.024;16.296;2022-07-29T07:46:16;10.13;;;9.10;;
4692;SDS011;11710;48.024;16.296;2022-07-29T07:48:43;10.03;;;9.13;;
4692;SDS011;11710;48.024;16.296;2022-07-29T07:51:10;12.90;;;9.70;;
4692;SDS011;11710;48.024;16.296;2022-07-29T07:53:39;9.87;;;8.97;;
4692;SDS011;11710;48.024;16.296;2022-07-29T07:56:06;10.17;;;8.87;;
4692;SDS011;11710;48.024;16.296;2022-07-29T07:58:33;9.87;;;8.97;;
4692;SDS011;11710;48.024;16.296;2022-07-29T08:01:01;10.30;;;9.30;;
4692;SDS011;11710;48.024;16.296;2022-07-29T08:03:28;9.43;;;8.53;;
4692;SDS011;11710;48.024;16.296;2022-07-29T08:05:55;10.30;;;9.30;;
4692;SDS011;11710;48.024;16.296;2022-07-29T08:08:22;10.90;;;9.80;;
4692;SDS011;11710;48.024;16.296;2022-07-29T08:10:51;9.67;;;8.77;;
4692;SDS011;11710;48.024;16.296;2022-07-29T08:13:18;10.47;;;9.43;;
4692;SDS011;11710;48.024;16.296;2022-07-29T08:16:03;11.17;;;9.27;;
4692;SDS011;11710;48.024;16.296;2022-07-29T08:18:45;11.40;;;9.60;;
4692;SDS011;11710;48.024;16.296;2022-07-29T08:21:22;10.13;;;9.13;;
4692;SDS011;11710;48.024;16.296;2022-07-29T08:23:50;9.87;;;8.97;;
4692;SDS011;11710;48.024;16.296;2022-07-29T08:26:40;10.67;;;9.63;;
4692;SDS011;11710;48.024;16.296;2022-07-29T08:29:12;10.13;;;9.13;;
4692;SDS011;11710;48.024;16.296;2022-07-29T08:31:40;10.77;;;8.77;;
4692;SDS011;11710;48.024;16.296;2022-07-29T08:34:07;9.90;;;8.00;;
4692;SDS011;11710;48.024;16.296;2022-07-29T08:36:37;10.47;;;9.27;;
4692;SDS011;11710;48.024;16.296;2022-07-29T08:39:07;9.33;;;8.40;;
4692;SDS011;11710;48.024;16.296;2022-07-29T08:41:41;10.60;;;9.07;;
4692;SDS011;11710;48.024;16.296;2022-07-29T08:44:08;11.03;;;8.87;;
4692;SDS011;11710;48.024;16.296;2022-07-29T08:46:42;15.53;;;9.67;;
4692;SDS011;11710;48.024;16.296;2022-07-29T08:49:18;9.90;;;8.90;;
4692;SDS011;11710;48.024;16.296;2022-07-29T08:54:28;11.47;;;8.83;;
4692;SDS011;11710;48.024;16.296;2022-07-29T08:57:20;10.77;;;9.77;;
4692;SDS011;11710;48.024;16.296;2022-07-29T09:00:28;9.37;;;8.57;;
4692;SDS011;11710;48.024;16.296;2022-07-29T09:02:56;11.37;;;9.00;;
4692;SDS011;11710;48.024;16.296;2022-07-29T09:05:30;9.77;;;8.30;;
4692;SDS011;11710;48.024;16.296;2022-07-29T09:08:30;9.93;;;8.90;;
4692;SDS011;11710;48.024;16.296;2022-07-29T09:11:03;9.40;;;8.23;;
4692;SDS011;11710;48.024;16.296;2022-07-29T09:13:33;9.40;;;8.50;;
4692;SDS011;11710;48.024;16.296;2022-07-29T09:16:11;9.50;;;8.70;;
4692;SDS011;11710;48.024;16.296;2022-07-29T09:18:47;17.00;;;9.47;;
4692;SDS011;11710;48.024;16.296;2022-07-29T09:21:26;9.47;;;8.57;;
4692;SDS011;11710;48.024;16.296;2022-07-29T09:24:44;8.90;;;8.10;;
4692;SDS011;11710;48.024;16.296;2022-07-29T09:27:26;12.13;;;8.33;;
4692;SDS011;11710;48.024;16.296;2022-07-29T09:30:13;9.90;;;8.60;;
4692;SDS011;11710;48.024;16.296;2022-07-29T09:35:43;9.27;;;8.37;;
4692;SDS011;11710;48.024;16.296;2022-07-29T09:38:23;8.87;;;7.93;;
4692;SDS011;11710;48.024;16.296;2022-07-29T09:40:57;9.00;;;8.20;;
4692;SDS011;11710;48.024;16.296;2022-07-29T09:43:25;9.20;;;8.40;;
4692;SDS011;11710;48.024;16.296;2022-07-29T09:45:54;9.17;;;8.37;;
4692;SDS011;11710;48.024;16.296;2022-07-29T09:48:23;9.57;;;8.20;;
4692;SDS011;11710;48.024;16.296;2022-07-29T09:50:57;9.10;;;7.30;;
4692;SDS011;11710;48.024;16.296;2022-07-29T09:53:31;8.70;;;8.00;;
4692;SDS011;11710;48.024;16.296;2022-07-29T09:56:05;8.73;;;7.93;;
4692;SDS011;11710;48.024;16.296;2022-07-29T09:58:35;8.87;;;8.00;;
4692;SDS011;11710;48.024;16.296;2022-07-29T10:01:03;10.97;;;7.63;;
4692;SDS011;11710;48.024;16.296;2022-07-29T10:03:35;9.77;;;8.13;;
4692;SDS011;11710;48.024;16.296;2022-07-29T10:06:17;9.97;;;8.97;;
4692;SDS011;11710;48.024;16.296;2022-07-29T10:08:53;10.20;;;9.20;;
4692;SDS011;11710;48.024;16.296;2022-07-29T10:11:20;9.53;;;7.97;;
4692;SDS011;11710;48.024;16.296;2022-07-29T10:13:49;9.23;;;7.90;;
4692;SDS011;11710;48.024;16.296;2022-07-29T10:16:18;9.83;;;8.93;;
4692;SDS011;11710;48.024;16.296;2022-07-29T10:18:45;9.23;;;8.43;;
4692;SDS011;11710;48.024;16.296;2022-07-29T10:21:12;9.50;;;7.90;;
4692;SDS011;11710;48.024;16.296;2022-07-29T10:23:46;8.73;;;7.93;;
4692;SDS011;11710;48.024;16.296;2022-07-29T10:26:13;10.00;;;8.70;;
4692;SDS011;11710;48.024;16.296;2022-07-29T10:29:37;8.37;;;7.57;;
4692;SDS011;11710;48.024;16.296;2022-07-29T10:39:27;8.27;;;7.47;;
4692;SDS011;11710;48.024;16.296;2022-07-29T10:42:31;9.23;;;8.33;;
4692;SDS011;11710;48.024;16.296;2022-07-29T10:45:07;10.03;;;8.27;;
4692;SDS011;11710;48.024;16.296;2022-07-29T10:47:34;13.33;;;7.97;;
4692;SDS011;11710;48.024;16.296;2022-07-29T10:50:02;9.60;;;8.70;;
4692;SDS011;11710;48.024;16.296;2022-07-29T10:55:33;10.50;;;8.10;;
4692;SDS011;11710;48.024;16.296;2022-07-29T10:58:11;11.23;;;8.23;;
4692;SDS011;11710;48.024;16.296;2022-07-29T11:00:39;9.20;;;8.40;;
4692;SDS011;11710;48.024;16.296;2022-07-29T11:03:06;8.90;;;8.20;;
4692;SDS011;11710;48.024;16.296;2022-07-29T11:08:20;9.73;;;8.73;;
4692;SDS011;11710;48.024;16.296;2022-07-29T11:10:52;9.40;;;7.87;;
4692;SDS011;11710;48.024;16.296;2022-07-29T11:13:47;8.97;;;8.17;;
4692;SDS011;11710;48.024;16.296;2022-07-29T11:16:16;9.10;;;8.30;;
4692;SDS011;11710;48.024;16.296;2022-07-29T11:21:45;8.30;;;7.60;;
4692;SDS011;11710;48.024;16.296;2022-07-29T11:24:15;9.10;;;8.03;;
4692;SDS011;11710;48.024;16.296;2022-07-29T11:26:47;8.67;;;7.90;;
4692;SDS011;11710;48.024;16.296;2022-07-29T11:29:41;8.23;;;7.43;;
4692;SDS011;11710;48.024;16.296;2022-07-29T11:32:19;9.03;;;8.17;;
4692;SDS011;11710;48.024;16.296;2022-07-29T11:34:47;9.03;;;8.10;;
4692;SDS011;11710;48.024;16.296;2022-07-29T11:37:19;9.67;;;7.93;;
4692;SDS011;11710;48.024;16.296;2022-07-29T11:43:07;10.90;;;8.20;;
4692;SDS011;11710;48.024;16.296;2022-07-29T11:45:45;8.50;;;7.50;;
4692;SDS011;11710;48.024;16.296;2022-07-29T11:48:16;10.10;;;8.40;;
4692;SDS011;11710;48.024;16.296;2022-07-29T11:50:44;8.67;;;7.80;;
4692;SDS011;11710;48.024;16.296;2022-07-29T11:53:12;8.20;;;7.50;;
4692;SDS011;11710;48.024;16.296;2022-07-29T11:55:40;9.00;;;8.10;;
4692;SDS011;11710;48.024;16.296;2022-07-29T11:58:08;9.60;;;7.53;;
4692;SDS011;11710;48.024;16.296;2022-07-29T12:00:36;9.90;;;9.00;;
4692;SDS011;11710;48.024;16.296;2022-07-29T12:03:05;9.10;;;8.30;;
4692;SDS011;11710;48.024;16.296;2022-07-29T12:05:35;9.07;;;8.27;;
4692;SDS011;11710;48.024;16.296;2022-07-29T12:08:04;8.90;;;8.17;;
4692;SDS011;11710;48.024;16.296;2022-07-29T12:10:35;8.80;;;8.00;;
4692;SDS011;11710;48.024;16.296;2022-07-29T12:13:02;10.03;;;9.10;;
4692;SDS011;11710;48.024;16.296;2022-07-29T12:15:31;9.77;;;8.73;;
4692;SDS011;11710;48.024;16.296;2022-07-29T12:17:58;10.77;;;8.43;;
4692;SDS011;11710;48.024;16.296;2022-07-29T12:20:35;10.60;;;9.50;;
4692;SDS011;11710;48.024;16.296;2022-07-29T12:23:04;10.40;;;8.57;;
4692;SDS011;11710;48.024;16.296;2022-07-29T12:25:33;9.53;;;8.63;;
4692;SDS011;11710;48.024;16.296;2022-07-29T12:28:03;9.30;;;8.40;;
4692;SDS011;11710;48.024;16.296;2022-07-29T12:30:37;9.23;;;8.37;;
4692;SDS011;11710;48.024;16.296;2022-07-29T12:33:13;8.87;;;8.07;;
4692;SDS011;11710;48.024;16.296;2022-07-29T12:35:45;9.03;;;8.20;;
4692;SDS011;11710;48.024;16.296;2022-07-29T12:38:14;9.70;;;8.80;;
4692;SDS011;11710;48.024;16.296;2022-07-29T12:40:42;10.17;;;9.07;;
4692;SDS011;11710;48.024;16.296;2022-07-29T12:43:11;9.37;;;8.50;;
4692;SDS011;11710;48.024;16.296;2022-07-29T12:45:42;9.93;;;8.60;;
4692;SDS011;11710;48.024;16.296;2022-07-29T12:48:10;11.33;;;8.60;;
4692;SDS011;11710;48.024;16.296;2022-07-29T12:50:51;9.17;;;8.27;;
4692;SDS011;11710;48.024;16.296;2022-07-29T12:53:20;9.07;;;8.27;;
4692;SDS011;11710;48.024;16.296;2022-07-29T12:55:47;9.00;;;8.20;;
4692;SDS011;11710;48.024;16.296;2022-07-29T12:58:30;8.57;;;7.87;;
4692;SDS011;11710;48.024;16.296;2022-07-29T13:01:01;9.43;;;8.40;;
4692;SDS011;11710;48.024;16.296;2022-07-29T13:03:41;9.40;;;8.40;;
4692;SDS011;11710;48.024;16.296;2022-07-29T13:06:27;9.87;;;8.87;;
4692;SDS011;11710;48.024;16.296;2022-07-29T13:09:09;9.43;;;8.30;;
4692;SDS011;11710;48.024;16.296;2022-07-29T13:11:39;10.17;;;9.27;;
4692;SDS011;11710;48.024;16.296;2022-07-29T13:14:08;9.50;;;8.53;;
4692;SDS011;11710;48.024;16.296;2022-07-29T13:19:33;11.90;;;8.70;;
4692;SDS011;11710;48.024;16.296;2022-07-29T13:22:01;9.63;;;8.73;;
4692;SDS011;11710;48.024;16.296;2022-07-29T13:24:28;10.03;;;8.70;;
4692;SDS011;11710;48.024;16.296;2022-07-29T13:26:55;9.17;;;8.37;;
4692;SDS011;11710;48.024;16.296;2022-07-29T13:29:22;9.67;;;8.67;;
4692;SDS011;11710;48.024;16.296;2022-07-29T13:31:52;9.73;;;8.57;;
4692;SDS011;11710;48.024;16.296;2022-07-29T13:34:20;10.20;;;8.90;;
4692;SDS011;11710;48.024;16.296;2022-07-29T13:36:49;9.40;;;8.37;;
4692;SDS011;11710;48.024;16.296;2022-07-29T13:39:16;11.07;;;10.07;;
4692;SDS011;11710;48.024;16.296;2022-07-29T13:41:43;15.40;;;9.03;;
4692;SDS011;11710;48.024;16.296;2022-07-29T13:44:09;11.60;;;9.27;;
4692;SDS011;11710;48.024;16.296;2022-07-29T13:46:36;9.30;;;8.40;;
4692;SDS011;11710;48.024;16.296;2022-07-29T13:49:05;9.00;;;8.00;;
4692;SDS011;11710;48.024;16.296;2022-07-29T13:51:32;12.30;;;8.97;;
4692;SDS011;11710;48.024;16.296;2022-07-29T13:53:59;9.50;;;8.60;;
4692;SDS011;11710;48.024;16.296;2022-07-29T13:56:26;10.13;;;8.57;;
4692;SDS011;11710;48.024;16.296;2022-07-29T13:58:53;10.80;;;8.73;;
4692;SDS011;11710;48.024;16.296;2022-07-29T14:01:20;12.63;;;8.40;;
4692;SDS011;11710;48.024;16.296;2022-07-29T14:03:46;9.67;;;8.77;;
4692;SDS011;11710;48.024;16.296;2022-07-29T14:06:23;9.37;;;8.47;;
4692;SDS011;11710;48.024;16.296;2022-07-29T14:08:50;9.00;;;8.20;;
4692;SDS011;11710;48.024;16.296;2022-07-29T14:12:09;9.30;;;7.20;;
4692;SDS011;11710;48.024;16.296;2022-07-29T14:14:39;8.73;;;7.83;;
4692;SDS011;11710;48.024;16.296;2022-07-29T14:17:17;9.80;;;8.03;;
4692;SDS011;11710;48.024;16.296;2022-07-29T14:19:44;9.43;;;8.50;;
4692;SDS011;11710;48.024;16.296;2022-07-29T14:22:12;9.43;;;8.53;;
4692;SDS011;11710;48.024;16.296;2022-07-29T14:25:02;10.47;;;8.87;;
4692;SDS011;11710;48.024;16.296;2022-07-29T14:27:30;9.80;;;8.50;;
4692;SDS011;11710;48.024;16.296;2022-07-29T14:30:11;10.07;;;9.07;;
4692;SDS011;11710;48.024;16.296;2022-07-29T14:35:09;10.90;;;9.80;;
4692;SDS011;11710;48.024;16.296;2022-07-29T14:37:37;10.33;;;9.33;;
4692;SDS011;11710;48.024;16.296;2022-07-29T14:40:04;10.10;;;9.20;;
4692;SDS011;11710;48.024;16.296;2022-07-29T14:42:32;10.47;;;9.37;;
4692;SDS011;11710;48.024;16.296;2022-07-29T14:44:59;11.60;;;10.07;;
4692;SDS011;11710;48.024;16.296;2022-07-29T14:47:26;14.83;;;10.60;;
4692;SDS011;11710;48.024;16.296;2022-07-29T14:49:52;11.37;;;10.17;;
4692;SDS011;11710;48.024;16.296;2022-07-29T14:52:19;14.70;;;10.47;;
4692;SDS011;11710;48.024;16.296;2022-07-29T14:54:48;13.60;;;10.30;;
4692;SDS011;11710;48.024;16.296;2022-07-29T14:57:15;11.27;;;10.13;;
4692;SDS011;11710;48.024;16.296;2022-07-29T14:59:42;10.87;;;9.17;;
4692;SDS011;11710;48.024;16.296;2022-07-29T15:02:09;9.77;;;8.80;;
4692;SDS011;11710;48.024;16.296;2022-07-29T15:04:36;15.20;;;9.33;;
4692;SDS011;11710;48.024;16.296;2022-07-29T15:07:03;11.40;;;10.30;;
4692;SDS011;11710;48.024;16.296;2022-07-29T15:09:29;16.77;;;10.73;;
4692;SDS011;11710;48.024;16.296;2022-07-29T15:11:58;11.93;;;10.83;;
4692;SDS011;11710;48.024;16.296;2022-07-29T15:14:25;14.40;;;10.83;;
4692;SDS011;11710;48.024;16.296;2022-07-29T15:16:52;12.63;;;11.33;;
4692;SDS011;11710;48.024;16.296;2022-07-29T15:19:18;11.33;;;10.33;;
4692;SDS011;11710;48.024;16.296;2022-07-29T15:21:45;10.60;;;9.70;;
4692;SDS011;11710;48.024;16.296;2022-07-29T15:24:12;10.90;;;9.87;;
4692;SDS011;11710;48.024;16.296;2022-07-29T15:26:39;10.97;;;9.87;;
4692;SDS011;11710;48.024;16.296;2022-07-29T15:29:08;11.43;;;10.33;;
4692;SDS011;11710;48.024;16.296;2022-07-29T15:31:35;11.17;;;10.07;;